sensor_id;sensor_type;location;lat;lon;timestamp;P1;durP1;ratioP1;P2;durP2;ratioP2
11970;SDS011;6045;42.682;23.294;2023-11-19T00:02:24;2.07;;;1.87;;
11970;SDS011;6045;42.682;23.294;2023-11-19T00:04:51;2.47;;;2.27;;
11970;SDS011;6045;42.682;23.294;2023-11-19T00:07:19;3.33;;;2.30;;
11970;SDS011;6045;42.682;23.294;2023-11-19T00:09:46;2.73;;;2.47;;
11970;SDS011;6045;42.682;23.294;2023-11-19T00:12:14;4.53;;;2.30;;
11970;SDS011;6045;42.682;23.294;2023-11-19T00:14:41;2.03;;;1.93;;
11970;SDS011;6045;42.682;23.294;2023-11-19T00:17:08;2.30;;;2.10;;
11970;SDS011;6045;42.682;23.294;2023-11-19T00:19:34;3.30;;;2.50;;
11970;SDS011;6045;42.682;23.294;2023-11-19T00:22:01;2.23;;;2.00;;
11970;SDS011;6045;42.682;23.294;2023-11-19T00:24:29;2.83;;;2.23;;
11970;SDS011;6045;42.682;23.294;2023-11-19T00:26:56;3.23;;;2.10;;
11970;SDS011;6045;42.682;23.294;2023-11-19T00:29:24;2.30;;;2.10;;
11970;SDS011;6045;42.682;23.294;2023-11-19T00:31:51;4.03;;;2.47;;
11970;SDS011;6045;42.682;23.294;2023-11-19T00:34:17;2.33;;;2.13;;
11970;SDS011;6045;42.682;23.294;2023-11-19T00:36:46;3.37;;;2.33;;
11970;SDS011;6045;42.682;23.294;2023-11-19T00:39:14;2.70;;;1.87;;
11970;SDS011;6045;42.682;23.294;2023-11-19T00:41:41;3.47;;;2.60;;
11970;SDS011;6045;42.682;23.294;2023-11-19T00:44:08;2.77;;;2.53;;
11970;SDS011;6045;42.682;23.294;2023-11-19T00:46:36;3.03;;;2.60;;
11970;SDS011;6045;42.682;23.294;2023-11-19T00:49:03;3.03;;;2.40;;
11970;SDS011;6045;42.682;23.294;2023-11-19T00:51:30;3.33;;;2.33;;
11970;SDS011;6045;42.682;23.294;2023-11-19T00:53:57;2.67;;;2.30;;
11970;SDS011;6045;42.682;23.294;2023-11-19T00:56:24;2.67;;;2.17;;
11970;SDS011;6045;42.682;23.294;2023-11-19T00:58:51;2.63;;;2.20;;
11970;SDS011;6045;42.682;23.294;2023-11-19T01:01:18;3.00;;;2.27;;
11970;SDS011;6045;42.682;23.294;2023-11-19T01:03:46;2.80;;;1.97;;
11970;SDS011;6045;42.682;23.294;2023-11-19T01:06:13;2.27;;;1.93;;
11970;SDS011;6045;42.682;23.294;2023-11-19T01:08:42;3.17;;;2.20;;
11970;SDS011;6045;42.682;23.294;2023-11-19T01:11:18;2.47;;;2.10;;
11970;SDS011;6045;42.682;23.294;2023-11-19T01:13:46;2.33;;;1.97;;
11970;SDS011;6045;42.682;23.294;2023-11-19T01:16:13;4.10;;;2.50;;
11970;SDS011;6045;42.682;23.294;2023-11-19T01:18:40;3.07;;;2.00;;
11970;SDS011;6045;42.682;23.294;2023-11-19T01:21:08;3.37;;;2.60;;
11970;SDS011;6045;42.682;23.294;2023-11-19T01:23:35;2.50;;;2.23;;
11970;SDS011;6045;42.682;23.294;2023-11-19T01:26:02;2.50;;;2.17;;
11970;SDS011;6045;42.682;23.294;2023-11-19T01:28:30;2.60;;;2.40;;
11970;SDS011;6045;42.682;23.294;2023-11-19T01:30:57;2.30;;;2.10;;
11970;SDS011;6045;42.682;23.294;2023-11-19T01:33:24;2.60;;;2.20;;
11970;SDS011;6045;42.682;23.294;2023-11-19T01:35:50;3.63;;;2.10;;
11970;SDS011;6045;42.682;23.294;2023-11-19T01:38:19;3.17;;;2.20;;
11970;SDS011;6045;42.682;23.294;2023-11-19T01:40:45;2.53;;;2.20;;
11970;SDS011;6045;42.682;23.294;2023-11-19T01:43:12;2.80;;;2.30;;
11970;SDS011;6045;42.682;23.294;2023-11-19T01:45:58;2.30;;;1.70;;
11970;SDS011;6045;42.682;23.294;2023-11-19T01:48:25;2.30;;;2.10;;
11970;SDS011;6045;42.682;23.294;2023-11-19T01:50:52;1.90;;;1.70;;
11970;SDS011;6045;42.682;23.294;2023-11-19T01:53:20;3.23;;;2.07;;
11970;SDS011;6045;42.682;23.294;2023-11-19T01:55:47;3.10;;;2.23;;
11970;SDS011;6045;42.682;23.294;2023-11-19T01:58:15;1.73;;;1.63;;
11970;SDS011;6045;42.682;23.294;2023-11-19T02:00:44;2.60;;;1.73;;
11970;SDS011;6045;42.682;23.294;2023-11-19T02:03:11;2.30;;;1.80;;
11970;SDS011;6045;42.682;23.294;2023-11-19T02:05:39;2.13;;;1.93;;
11970;SDS011;6045;42.682;23.294;2023-11-19T02:08:06;2.43;;;2.00;;
11970;SDS011;6045;42.682;23.294;2023-11-19T02:10:35;2.40;;;1.60;;
11970;SDS011;6045;42.682;23.294;2023-11-19T02:13:02;3.10;;;1.90;;
11970;SDS011;6045;42.682;23.294;2023-11-19T02:15:31;2.67;;;2.07;;
11970;SDS011;6045;42.682;23.294;2023-11-19T02:20:46;2.97;;;2.20;;
11970;SDS011;6045;42.682;23.294;2023-11-19T02:23:13;2.50;;;2.00;;
11970;SDS011;6045;42.682;23.294;2023-11-19T02:25:42;2.30;;;2.03;;
11970;SDS011;6045;42.682;23.294;2023-11-19T02:28:16;2.77;;;2.13;;
11970;SDS011;6045;42.682;23.294;2023-11-19T02:30:43;2.53;;;2.00;;
11970;SDS011;6045;42.682;23.294;2023-11-19T02:33:10;3.57;;;2.23;;
11970;SDS011;6045;42.682;23.294;2023-11-19T02:35:38;2.50;;;2.30;;
11970;SDS011;6045;42.682;23.294;2023-11-19T02:38:05;2.03;;;1.83;;
11970;SDS011;6045;42.682;23.294;2023-11-19T02:40:33;1.93;;;1.70;;
11970;SDS011;6045;42.682;23.294;2023-11-19T02:43:00;2.53;;;1.90;;
11970;SDS011;6045;42.682;23.294;2023-11-19T02:45:31;2.57;;;2.30;;
11970;SDS011;6045;42.682;23.294;2023-11-19T02:47:58;2.20;;;1.70;;
11970;SDS011;6045;42.682;23.294;2023-11-19T02:50:26;3.87;;;2.03;;
11970;SDS011;6045;42.682;23.294;2023-11-19T02:52:54;2.13;;;1.93;;
11970;SDS011;6045;42.682;23.294;2023-11-19T02:55:22;3.60;;;1.83;;
11970;SDS011;6045;42.682;23.294;2023-11-19T02:57:50;2.80;;;1.70;;
11970;SDS011;6045;42.682;23.294;2023-11-19T03:00:18;2.10;;;1.53;;
11970;SDS011;6045;42.682;23.294;2023-11-19T03:02:50;1.87;;;1.67;;
11970;SDS011;6045;42.682;23.294;2023-11-19T03:05:24;2.40;;;1.90;;
11970;SDS011;6045;42.682;23.294;2023-11-19T03:07:55;2.70;;;2.03;;
11970;SDS011;6045;42.682;23.294;2023-11-19T03:10:23;2.17;;;1.97;;
11970;SDS011;6045;42.682;23.294;2023-11-19T03:12:49;2.13;;;1.90;;
11970;SDS011;6045;42.682;23.294;2023-11-19T03:15:17;2.70;;;1.90;;
11970;SDS011;6045;42.682;23.294;2023-11-19T03:17:46;2.53;;;1.97;;
11970;SDS011;6045;42.682;23.294;2023-11-19T03:20:14;2.33;;;2.13;;
11970;SDS011;6045;42.682;23.294;2023-11-19T03:22:42;3.33;;;1.90;;
11970;SDS011;6045;42.682;23.294;2023-11-19T03:25:09;1.10;;;0.90;;
11970;SDS011;6045;42.682;23.294;2023-11-19T03:27:37;2.00;;;1.80;;
11970;SDS011;6045;42.682;23.294;2023-11-19T03:30:07;2.43;;;2.23;;
11970;SDS011;6045;42.682;23.294;2023-11-19T03:32:34;2.30;;;1.90;;
11970;SDS011;6045;42.682;23.294;2023-11-19T03:35:02;2.77;;;2.30;;
11970;SDS011;6045;42.682;23.294;2023-11-19T03:37:31;1.83;;;1.53;;
11970;SDS011;6045;42.682;23.294;2023-11-19T03:39:58;2.20;;;2.00;;
11970;SDS011;6045;42.682;23.294;2023-11-19T03:42:25;2.03;;;1.83;;
11970;SDS011;6045;42.682;23.294;2023-11-19T03:44:53;2.57;;;1.97;;
11970;SDS011;6045;42.682;23.294;2023-11-19T03:47:20;3.73;;;2.20;;
11970;SDS011;6045;42.682;23.294;2023-11-19T03:49:47;2.40;;;2.07;;
11970;SDS011;6045;42.682;23.294;2023-11-19T03:52:15;2.40;;;2.20;;
11970;SDS011;6045;42.682;23.294;2023-11-19T03:54:43;2.90;;;2.30;;
11970;SDS011;6045;42.682;23.294;2023-11-19T03:57:10;2.73;;;2.07;;
11970;SDS011;6045;42.682;23.294;2023-11-19T03:59:37;2.53;;;2.10;;
11970;SDS011;6045;42.682;23.294;2023-11-19T04:02:04;3.10;;;2.03;;
11970;SDS011;6045;42.682;23.294;2023-11-19T04:04:31;2.50;;;2.17;;
11970;SDS011;6045;42.682;23.294;2023-11-19T04:06:59;2.00;;;1.80;;
11970;SDS011;6045;42.682;23.294;2023-11-19T04:09:28;2.40;;;2.00;;
11970;SDS011;6045;42.682;23.294;2023-11-19T04:11:56;2.63;;;2.20;;
11970;SDS011;6045;42.682;23.294;2023-11-19T04:14:23;2.80;;;2.00;;
11970;SDS011;6045;42.682;23.294;2023-11-19T04:16:50;2.43;;;2.03;;
11970;SDS011;6045;42.682;23.294;2023-11-19T04:19:18;2.27;;;1.70;;
11970;SDS011;6045;42.682;23.294;2023-11-19T04:21:46;2.43;;;1.57;;
11970;SDS011;6045;42.682;23.294;2023-11-19T04:24:12;2.80;;;2.10;;
11970;SDS011;6045;42.682;23.294;2023-11-19T04:26:40;2.20;;;1.80;;
11970;SDS011;6045;42.682;23.294;2023-11-19T04:29:10;2.73;;;2.20;;
11970;SDS011;6045;42.682;23.294;2023-11-19T04:31:38;2.67;;;1.90;;
11970;SDS011;6045;42.682;23.294;2023-11-19T04:34:05;2.00;;;1.80;;
11970;SDS011;6045;42.682;23.294;2023-11-19T04:36:32;2.20;;;1.57;;
11970;SDS011;6045;42.682;23.294;2023-11-19T04:38:59;2.43;;;2.23;;
11970;SDS011;6045;42.682;23.294;2023-11-19T04:41:27;2.13;;;1.80;;
11970;SDS011;6045;42.682;23.294;2023-11-19T04:43:54;4.07;;;2.50;;
11970;SDS011;6045;42.682;23.294;2023-11-19T04:46:22;3.80;;;2.37;;
11970;SDS011;6045;42.682;23.294;2023-11-19T04:48:49;2.93;;;2.30;;
11970;SDS011;6045;42.682;23.294;2023-11-19T04:51:16;3.07;;;1.77;;
11970;SDS011;6045;42.682;23.294;2023-11-19T04:53:43;3.97;;;2.40;;
11970;SDS011;6045;42.682;23.294;2023-11-19T04:56:10;2.00;;;1.80;;
11970;SDS011;6045;42.682;23.294;2023-11-19T04:58:38;2.30;;;2.10;;
11970;SDS011;6045;42.682;23.294;2023-11-19T05:01:05;3.17;;;2.10;;
11970;SDS011;6045;42.682;23.294;2023-11-19T05:03:33;2.50;;;2.10;;
11970;SDS011;6045;42.682;23.294;2023-11-19T05:06:01;2.10;;;1.77;;
11970;SDS011;6045;42.682;23.294;2023-11-19T05:08:28;2.80;;;2.17;;
11970;SDS011;6045;42.682;23.294;2023-11-19T05:10:55;2.60;;;2.10;;
11970;SDS011;6045;42.682;23.294;2023-11-19T05:13:22;2.00;;;1.80;;
11970;SDS011;6045;42.682;23.294;2023-11-19T05:15:50;3.57;;;2.20;;
11970;SDS011;6045;42.682;23.294;2023-11-19T05:18:17;2.30;;;1.90;;
11970;SDS011;6045;42.682;23.294;2023-11-19T05:20:46;1.70;;;1.20;;
11970;SDS011;6045;42.682;23.294;2023-11-19T05:23:12;2.60;;;1.73;;
11970;SDS011;6045;42.682;23.294;2023-11-19T05:25:39;2.00;;;1.90;;
11970;SDS011;6045;42.682;23.294;2023-11-19T05:28:06;3.77;;;2.60;;
11970;SDS011;6045;42.682;23.294;2023-11-19T05:30:33;2.70;;;2.10;;
11970;SDS011;6045;42.682;23.294;2023-11-19T05:33:00;2.27;;;2.00;;
11970;SDS011;6045;42.682;23.294;2023-11-19T05:35:27;2.43;;;2.23;;
11970;SDS011;6045;42.682;23.294;2023-11-19T05:37:55;3.77;;;2.63;;
11970;SDS011;6045;42.682;23.294;2023-11-19T05:40:22;2.57;;;2.07;;
11970;SDS011;6045;42.682;23.294;2023-11-19T05:42:49;3.67;;;2.40;;
11970;SDS011;6045;42.682;23.294;2023-11-19T05:45:15;2.63;;;2.13;;
11970;SDS011;6045;42.682;23.294;2023-11-19T05:47:42;2.40;;;1.77;;
11970;SDS011;6045;42.682;23.294;2023-11-19T05:50:10;2.13;;;1.87;;
11970;SDS011;6045;42.682;23.294;2023-11-19T05:52:36;2.10;;;1.80;;
11970;SDS011;6045;42.682;23.294;2023-11-19T05:55:05;3.47;;;2.23;;
11970;SDS011;6045;42.682;23.294;2023-11-19T05:57:35;3.63;;;2.97;;
11970;SDS011;6045;42.682;23.294;2023-11-19T06:00:02;5.63;;;2.33;;
11970;SDS011;6045;42.682;23.294;2023-11-19T06:02:32;2.43;;;2.23;;
11970;SDS011;6045;42.682;23.294;2023-11-19T06:04:59;3.40;;;2.27;;
11970;SDS011;6045;42.682;23.294;2023-11-19T06:07:26;3.27;;;2.30;;
11970;SDS011;6045;42.682;23.294;2023-11-19T06:09:53;2.70;;;2.07;;
11970;SDS011;6045;42.682;23.294;2023-11-19T06:12:21;3.60;;;2.73;;
11970;SDS011;6045;42.682;23.294;2023-11-19T06:14:48;3.77;;;2.63;;
11970;SDS011;6045;42.682;23.294;2023-11-19T06:17:15;2.47;;;2.07;;
11970;SDS011;6045;42.682;23.294;2023-11-19T06:19:42;3.33;;;2.10;;
11970;SDS011;6045;42.682;23.294;2023-11-19T06:22:10;2.97;;;2.47;;
11970;SDS011;6045;42.682;23.294;2023-11-19T06:24:37;3.63;;;2.30;;
11970;SDS011;6045;42.682;23.294;2023-11-19T06:27:03;2.40;;;1.87;;
11970;SDS011;6045;42.682;23.294;2023-11-19T06:29:32;3.93;;;2.10;;
11970;SDS011;6045;42.682;23.294;2023-11-19T06:31:58;2.60;;;1.97;;
11970;SDS011;6045;42.682;23.294;2023-11-19T06:34:25;3.13;;;2.30;;
11970;SDS011;6045;42.682;23.294;2023-11-19T06:36:52;3.50;;;2.30;;
11970;SDS011;6045;42.682;23.294;2023-11-19T06:39:19;3.60;;;2.63;;
11970;SDS011;6045;42.682;23.294;2023-11-19T06:41:46;2.77;;;1.87;;
11970;SDS011;6045;42.682;23.294;2023-11-19T06:44:13;3.30;;;2.33;;
11970;SDS011;6045;42.682;23.294;2023-11-19T06:46:42;2.87;;;2.47;;
11970;SDS011;6045;42.682;23.294;2023-11-19T06:49:08;2.77;;;2.13;;
11970;SDS011;6045;42.682;23.294;2023-11-19T06:51:35;5.03;;;2.53;;
11970;SDS011;6045;42.682;23.294;2023-11-19T06:54:06;4.10;;;2.97;;
11970;SDS011;6045;42.682;23.294;2023-11-19T06:56:33;3.83;;;2.67;;
11970;SDS011;6045;42.682;23.294;2023-11-19T06:59:00;2.87;;;2.13;;
11970;SDS011;6045;42.682;23.294;2023-11-19T07:01:27;2.33;;;2.13;;
11970;SDS011;6045;42.682;23.294;2023-11-19T07:03:55;3.23;;;2.43;;
11970;SDS011;6045;42.682;23.294;2023-11-19T07:06:23;2.73;;;2.07;;
11970;SDS011;6045;42.682;23.294;2023-11-19T07:08:49;3.33;;;2.63;;
11970;SDS011;6045;42.682;23.294;2023-11-19T07:11:16;4.67;;;2.40;;
11970;SDS011;6045;42.682;23.294;2023-11-19T07:13:43;3.47;;;2.37;;
11970;SDS011;6045;42.682;23.294;2023-11-19T07:16:11;2.87;;;2.60;;
11970;SDS011;6045;42.682;23.294;2023-11-19T07:18:40;3.23;;;2.30;;
11970;SDS011;6045;42.682;23.294;2023-11-19T07:21:10;2.40;;;2.20;;
11970;SDS011;6045;42.682;23.294;2023-11-19T07:23:37;2.27;;;2.07;;
11970;SDS011;6045;42.682;23.294;2023-11-19T07:26:04;3.60;;;2.53;;
11970;SDS011;6045;42.682;23.294;2023-11-19T07:28:33;4.20;;;2.83;;
11970;SDS011;6045;42.682;23.294;2023-11-19T07:31:00;5.30;;;3.03;;
11970;SDS011;6045;42.682;23.294;2023-11-19T07:33:27;2.63;;;1.90;;
11970;SDS011;6045;42.682;23.294;2023-11-19T07:35:54;3.17;;;2.33;;
11970;SDS011;6045;42.682;23.294;2023-11-19T07:38:23;3.50;;;2.40;;
11970;SDS011;6045;42.682;23.294;2023-11-19T07:40:49;2.83;;;1.67;;
11970;SDS011;6045;42.682;23.294;2023-11-19T07:43:16;4.47;;;2.50;;
11970;SDS011;6045;42.682;23.294;2023-11-19T07:45:43;1.87;;;1.60;;
11970;SDS011;6045;42.682;23.294;2023-11-19T07:48:11;2.43;;;2.23;;
11970;SDS011;6045;42.682;23.294;2023-11-19T07:50:39;3.20;;;2.17;;
11970;SDS011;6045;42.682;23.294;2023-11-19T07:53:06;4.10;;;2.67;;
11970;SDS011;6045;42.682;23.294;2023-11-19T07:55:35;3.70;;;2.97;;
11970;SDS011;6045;42.682;23.294;2023-11-19T07:58:02;3.57;;;2.57;;
11970;SDS011;6045;42.682;23.294;2023-11-19T08:00:29;5.40;;;3.17;;
11970;SDS011;6045;42.682;23.294;2023-11-19T08:02:56;3.93;;;2.80;;
11970;SDS011;6045;42.682;23.294;2023-11-19T08:05:22;3.80;;;3.00;;
11970;SDS011;6045;42.682;23.294;2023-11-19T08:07:50;3.90;;;3.23;;
11970;SDS011;6045;42.682;23.294;2023-11-19T08:10:18;3.77;;;2.73;;
11970;SDS011;6045;42.682;23.294;2023-11-19T08:12:46;3.13;;;2.23;;
11970;SDS011;6045;42.682;23.294;2023-11-19T08:15:13;3.37;;;2.20;;
11970;SDS011;6045;42.682;23.294;2023-11-19T08:17:40;3.20;;;2.37;;
11970;SDS011;6045;42.682;23.294;2023-11-19T08:20:08;3.27;;;2.13;;
11970;SDS011;6045;42.682;23.294;2023-11-19T08:22:35;5.27;;;2.97;;
11970;SDS011;6045;42.682;23.294;2023-11-19T08:25:03;2.57;;;2.37;;
11970;SDS011;6045;42.682;23.294;2023-11-19T08:27:30;3.00;;;2.70;;
11970;SDS011;6045;42.682;23.294;2023-11-19T08:29:59;3.37;;;2.67;;
11970;SDS011;6045;42.682;23.294;2023-11-19T08:32:26;4.07;;;2.83;;
11970;SDS011;6045;42.682;23.294;2023-11-19T08:34:53;3.43;;;2.30;;
11970;SDS011;6045;42.682;23.294;2023-11-19T08:37:21;3.60;;;2.20;;
11970;SDS011;6045;42.682;23.294;2023-11-19T08:39:48;4.10;;;2.80;;
11970;SDS011;6045;42.682;23.294;2023-11-19T08:42:15;2.43;;;2.23;;
11970;SDS011;6045;42.682;23.294;2023-11-19T08:44:42;4.10;;;3.23;;
11970;SDS011;6045;42.682;23.294;2023-11-19T08:47:13;3.33;;;2.80;;
11970;SDS011;6045;42.682;23.294;2023-11-19T08:49:43;2.23;;;1.63;;
11970;SDS011;6045;42.682;23.294;2023-11-19T08:52:10;3.70;;;2.63;;
11970;SDS011;6045;42.682;23.294;2023-11-19T08:54:36;1.93;;;1.77;;
11970;SDS011;6045;42.682;23.294;2023-11-19T08:57:03;4.43;;;2.43;;
11970;SDS011;6045;42.682;23.294;2023-11-19T08:59:32;4.00;;;2.93;;
11970;SDS011;6045;42.682;23.294;2023-11-19T09:01:59;3.10;;;2.70;;
11970;SDS011;6045;42.682;23.294;2023-11-19T09:04:28;4.10;;;3.07;;
11970;SDS011;6045;42.682;23.294;2023-11-19T09:06:57;5.13;;;3.47;;
11970;SDS011;6045;42.682;23.294;2023-11-19T09:09:23;5.70;;;4.27;;
11970;SDS011;6045;42.682;23.294;2023-11-19T09:11:50;3.33;;;3.00;;
11970;SDS011;6045;42.682;23.294;2023-11-19T09:14:17;6.33;;;2.73;;
11970;SDS011;6045;42.682;23.294;2023-11-19T09:16:47;4.63;;;2.73;;
11970;SDS011;6045;42.682;23.294;2023-11-19T09:19:14;2.50;;;2.30;;
11970;SDS011;6045;42.682;23.294;2023-11-19T09:21:42;2.80;;;2.37;;
11970;SDS011;6045;42.682;23.294;2023-11-19T09:24:09;3.53;;;2.50;;
11970;SDS011;6045;42.682;23.294;2023-11-19T09:26:36;3.67;;;2.93;;
11970;SDS011;6045;42.682;23.294;2023-11-19T09:29:05;2.47;;;2.27;;
11970;SDS011;6045;42.682;23.294;2023-11-19T09:31:34;2.93;;;2.20;;
11970;SDS011;6045;42.682;23.294;2023-11-19T09:34:01;3.77;;;2.47;;
11970;SDS011;6045;42.682;23.294;2023-11-19T09:36:28;2.73;;;2.20;;
11970;SDS011;6045;42.682;23.294;2023-11-19T09:38:56;2.97;;;2.63;;
11970;SDS011;6045;42.682;23.294;2023-11-19T09:41:25;3.13;;;2.10;;
11970;SDS011;6045;42.682;23.294;2023-11-19T09:43:53;4.10;;;2.93;;
11970;SDS011;6045;42.682;23.294;2023-11-19T09:46:20;2.63;;;1.90;;
11970;SDS011;6045;42.682;23.294;2023-11-19T09:48:49;3.80;;;2.87;;
11970;SDS011;6045;42.682;23.294;2023-11-19T09:51:20;4.97;;;3.13;;
11970;SDS011;6045;42.682;23.294;2023-11-19T09:53:46;3.23;;;2.67;;
11970;SDS011;6045;42.682;23.294;2023-11-19T09:56:15;3.87;;;2.60;;
11970;SDS011;6045;42.682;23.294;2023-11-19T09:58:42;4.67;;;2.90;;
11970;SDS011;6045;42.682;23.294;2023-11-19T10:01:09;3.40;;;2.73;;
11970;SDS011;6045;42.682;23.294;2023-11-19T10:03:37;2.90;;;2.33;;
11970;SDS011;6045;42.682;23.294;2023-11-19T10:06:06;2.23;;;2.03;;
11970;SDS011;6045;42.682;23.294;2023-11-19T10:08:33;2.40;;;2.20;;
11970;SDS011;6045;42.682;23.294;2023-11-19T10:11:00;4.27;;;3.07;;
11970;SDS011;6045;42.682;23.294;2023-11-19T10:13:29;2.73;;;2.30;;
11970;SDS011;6045;42.682;23.294;2023-11-19T10:15:56;2.33;;;1.90;;
11970;SDS011;6045;42.682;23.294;2023-11-19T10:18:24;4.50;;;2.77;;
11970;SDS011;6045;42.682;23.294;2023-11-19T10:20:52;3.23;;;1.93;;
11970;SDS011;6045;42.682;23.294;2023-11-19T10:23:20;3.53;;;2.33;;
11970;SDS011;6045;42.682;23.294;2023-11-19T10:25:47;3.07;;;2.03;;
11970;SDS011;6045;42.682;23.294;2023-11-19T10:28:14;2.70;;;2.13;;
11970;SDS011;6045;42.682;23.294;2023-11-19T10:30:43;4.03;;;2.30;;
11970;SDS011;6045;42.682;23.294;2023-11-19T10:33:11;3.77;;;2.30;;
11970;SDS011;6045;42.682;23.294;2023-11-19T10:35:52;2.73;;;2.40;;
11970;SDS011;6045;42.682;23.294;2023-11-19T10:38:20;3.17;;;2.23;;
11970;SDS011;6045;42.682;23.294;2023-11-19T10:40:47;3.17;;;2.50;;
11970;SDS011;6045;42.682;23.294;2023-11-19T10:43:14;2.70;;;2.40;;
11970;SDS011;6045;42.682;23.294;2023-11-19T10:45:41;5.83;;;2.50;;
11970;SDS011;6045;42.682;23.294;2023-11-19T10:48:09;2.67;;;2.30;;
11970;SDS011;6045;42.682;23.294;2023-11-19T10:50:38;4.50;;;2.60;;
11970;SDS011;6045;42.682;23.294;2023-11-19T10:53:07;4.67;;;3.10;;
11970;SDS011;6045;42.682;23.294;2023-11-19T10:55:35;5.63;;;3.00;;
11970;SDS011;6045;42.682;23.294;2023-11-19T10:58:04;4.07;;;3.37;;
11970;SDS011;6045;42.682;23.294;2023-11-19T11:00:34;3.30;;;2.57;;
11970;SDS011;6045;42.682;23.294;2023-11-19T11:03:14;3.83;;;2.27;;
11970;SDS011;6045;42.682;23.294;2023-11-19T11:05:43;3.63;;;2.23;;
11970;SDS011;6045;42.682;23.294;2023-11-19T11:08:13;3.13;;;1.80;;
11970;SDS011;6045;42.682;23.294;2023-11-19T11:10:42;2.50;;;2.03;;
11970;SDS011;6045;42.682;23.294;2023-11-19T11:13:11;3.17;;;1.83;;
11970;SDS011;6045;42.682;23.294;2023-11-19T11:15:40;2.70;;;1.83;;
11970;SDS011;6045;42.682;23.294;2023-11-19T11:18:08;2.70;;;2.03;;
11970;SDS011;6045;42.682;23.294;2023-11-19T11:20:36;3.07;;;2.33;;
11970;SDS011;6045;42.682;23.294;2023-11-19T11:23:13;4.87;;;1.80;;
11970;SDS011;6045;42.682;23.294;2023-11-19T11:26:00;2.30;;;2.10;;
11970;SDS011;6045;42.682;23.294;2023-11-19T11:28:41;3.70;;;2.60;;
11970;SDS011;6045;42.682;23.294;2023-11-19T11:31:21;2.73;;;2.23;;
11970;SDS011;6045;42.682;23.294;2023-11-19T11:37:24;2.67;;;2.07;;
11970;SDS011;6045;42.682;23.294;2023-11-19T11:39:58;2.37;;;2.17;;
11970;SDS011;6045;42.682;23.294;2023-11-19T11:42:32;2.70;;;2.37;;
11970;SDS011;6045;42.682;23.294;2023-11-19T11:45:00;2.07;;;1.80;;
11970;SDS011;6045;42.682;23.294;2023-11-19T11:50:30;2.87;;;2.00;;
11970;SDS011;6045;42.682;23.294;2023-11-19T11:53:17;2.28;;;1.88;;
11970;SDS011;6045;42.682;23.294;2023-11-19T11:55:57;2.83;;;2.25;;
11970;SDS011;6045;42.682;23.294;2023-11-19T11:58:26;2.70;;;2.50;;
11970;SDS011;6045;42.682;23.294;2023-11-19T12:00:58;2.20;;;1.90;;
11970;SDS011;6045;42.682;23.294;2023-11-19T12:03:27;3.08;;;2.42;;
11970;SDS011;6045;42.682;23.294;2023-11-19T12:05:56;2.67;;;2.42;;
11970;SDS011;6045;42.682;23.294;2023-11-19T12:08:29;2.72;;;2.13;;
11970;SDS011;6045;42.682;23.294;2023-11-19T12:10:57;4.78;;;2.90;;
11970;SDS011;6045;42.682;23.294;2023-11-19T12:13:27;4.22;;;2.70;;
11970;SDS011;6045;42.682;23.294;2023-11-19T12:16:12;2.90;;;2.20;;
11970;SDS011;6045;42.682;23.294;2023-11-19T12:18:39;3.15;;;2.30;;
11970;SDS011;6045;42.682;23.294;2023-11-19T12:21:09;3.42;;;2.20;;
11970;SDS011;6045;42.682;23.294;2023-11-19T12:23:43;2.53;;;2.20;;
11970;SDS011;6045;42.682;23.294;2023-11-19T12:26:31;2.75;;;2.40;;
11970;SDS011;6045;42.682;23.294;2023-11-19T12:28:59;4.32;;;3.10;;
11970;SDS011;6045;42.682;23.294;2023-11-19T12:31:28;3.58;;;2.70;;
11970;SDS011;6045;42.682;23.294;2023-11-19T12:33:55;4.60;;;2.70;;
11970;SDS011;6045;42.682;23.294;2023-11-19T12:36:22;2.60;;;2.20;;
11970;SDS011;6045;42.682;23.294;2023-11-19T12:38:51;2.58;;;2.38;;
11970;SDS011;6045;42.682;23.294;2023-11-19T12:41:18;3.08;;;2.30;;
11970;SDS011;6045;42.682;23.294;2023-11-19T12:43:48;2.60;;;2.40;;
11970;SDS011;6045;42.682;23.294;2023-11-19T12:46:19;2.75;;;2.45;;
11970;SDS011;6045;42.682;23.294;2023-11-19T12:48:47;2.58;;;2.10;;
11970;SDS011;6045;42.682;23.294;2023-11-19T12:51:14;2.67;;;2.17;;
11970;SDS011;6045;42.682;23.294;2023-11-19T12:53:47;2.30;;;2.10;;
11970;SDS011;6045;42.682;23.294;2023-11-19T12:56:16;3.30;;;2.40;;
11970;SDS011;6045;42.682;23.294;2023-11-19T12:58:43;2.72;;;2.40;;
11970;SDS011;6045;42.682;23.294;2023-11-19T13:01:14;2.40;;;2.17;;
11970;SDS011;6045;42.682;23.294;2023-11-19T13:03:42;2.75;;;2.53;;
11970;SDS011;6045;42.682;23.294;2023-11-19T13:06:10;3.80;;;2.72;;
11970;SDS011;6045;42.682;23.294;2023-11-19T13:08:38;3.05;;;2.78;;
11970;SDS011;6045;42.682;23.294;2023-11-19T13:11:05;3.03;;;2.70;;
11970;SDS011;6045;42.682;23.294;2023-11-19T13:16:24;4.18;;;2.85;;
11970;SDS011;6045;42.682;23.294;2023-11-19T13:18:52;4.30;;;2.72;;
11970;SDS011;6045;42.682;23.294;2023-11-19T13:21:19;2.65;;;2.25;;
11970;SDS011;6045;42.682;23.294;2023-11-19T13:23:46;4.38;;;2.35;;
11970;SDS011;6045;42.682;23.294;2023-11-19T13:26:12;3.50;;;2.60;;
11970;SDS011;6045;42.682;23.294;2023-11-19T13:28:42;3.58;;;2.85;;
11970;SDS011;6045;42.682;23.294;2023-11-19T13:31:10;4.35;;;3.65;;
11970;SDS011;6045;42.682;23.294;2023-11-19T13:33:37;6.10;;;3.25;;
11970;SDS011;6045;42.682;23.294;2023-11-19T13:36:04;4.10;;;3.50;;
11970;SDS011;6045;42.682;23.294;2023-11-19T13:38:32;4.10;;;2.85;;
11970;SDS011;6045;42.682;23.294;2023-11-19T13:41:00;3.42;;;2.88;;
11970;SDS011;6045;42.682;23.294;2023-11-19T13:43:27;4.10;;;2.85;;
11970;SDS011;6045;42.682;23.294;2023-11-19T13:45:54;4.55;;;3.28;;
11970;SDS011;6045;42.682;23.294;2023-11-19T13:48:22;4.07;;;3.17;;
11970;SDS011;6045;42.682;23.294;2023-11-19T13:50:49;3.10;;;2.80;;
11970;SDS011;6045;42.682;23.294;2023-11-19T13:53:16;4.35;;;3.47;;
11970;SDS011;6045;42.682;23.294;2023-11-19T13:55:43;4.28;;;2.83;;
11970;SDS011;6045;42.682;23.294;2023-11-19T13:58:10;3.58;;;2.90;;
11970;SDS011;6045;42.682;23.294;2023-11-19T14:00:36;2.97;;;2.28;;
11970;SDS011;6045;42.682;23.294;2023-11-19T14:03:03;2.40;;;2.13;;
11970;SDS011;6045;42.682;23.294;2023-11-19T14:05:32;2.50;;;1.90;;
11970;SDS011;6045;42.682;23.294;2023-11-19T14:07:58;2.17;;;1.60;;
11970;SDS011;6045;42.682;23.294;2023-11-19T14:10:26;2.80;;;1.88;;
11970;SDS011;6045;42.682;23.294;2023-11-19T14:12:53;3.20;;;2.38;;
11970;SDS011;6045;42.682;23.294;2023-11-19T14:15:20;4.32;;;2.90;;
11970;SDS011;6045;42.682;23.294;2023-11-19T14:17:47;3.55;;;2.90;;
11970;SDS011;6045;42.682;23.294;2023-11-19T14:20:14;3.90;;;3.03;;
11970;SDS011;6045;42.682;23.294;2023-11-19T14:22:44;4.40;;;2.70;;
11970;SDS011;6045;42.682;23.294;2023-11-19T14:25:13;3.43;;;3.00;;
11970;SDS011;6045;42.682;23.294;2023-11-19T14:27:41;5.23;;;2.97;;
11970;SDS011;6045;42.682;23.294;2023-11-19T14:30:11;3.77;;;3.07;;
11970;SDS011;6045;42.682;23.294;2023-11-19T14:32:39;4.37;;;2.80;;
11970;SDS011;6045;42.682;23.294;2023-11-19T14:35:09;5.30;;;3.17;;
11970;SDS011;6045;42.682;23.294;2023-11-19T14:37:35;3.87;;;3.03;;
11970;SDS011;6045;42.682;23.294;2023-11-19T14:40:04;3.23;;;2.93;;
11970;SDS011;6045;42.682;23.294;2023-11-19T14:42:34;3.57;;;2.70;;
11970;SDS011;6045;42.682;23.294;2023-11-19T14:45:02;4.30;;;2.80;;
11970;SDS011;6045;42.682;23.294;2023-11-19T14:47:29;3.80;;;2.93;;
11970;SDS011;6045;42.682;23.294;2023-11-19T14:49:56;4.60;;;2.90;;
11970;SDS011;6045;42.682;23.294;2023-11-19T14:52:23;4.20;;;3.37;;
11970;SDS011;6045;42.682;23.294;2023-11-19T14:54:50;3.97;;;2.80;;
11970;SDS011;6045;42.682;23.294;2023-11-19T14:57:20;6.20;;;3.40;;
11970;SDS011;6045;42.682;23.294;2023-11-19T14:59:47;6.30;;;3.20;;
11970;SDS011;6045;42.682;23.294;2023-11-19T15:02:14;8.17;;;3.60;;
11970;SDS011;6045;42.682;23.294;2023-11-19T15:04:40;4.27;;;3.87;;
11970;SDS011;6045;42.682;23.294;2023-11-19T15:07:09;3.90;;;3.27;;